Time;durP1;ratioP1;P1;durP2;ratioP2;P2;SDS_P1;SDS_P2;PMS_P1;PMS_P2;Temp;Humidity;BMP_temperature;BMP_pressure;BME280_temperature;BME280_humidity;BME280_pressure;Samples;Min_cycle;Max_cycle;Signal;HPM_P1;HPM_P2
2023/11/09 00:01:19;;;;;;;2.03;1.30;;;7.60;99.90;;;;;;4128592;28;20042;-60
2023/11/09 00:03:20;;;;;;;3.20;1.50;;;7.60;99.90;;;;;;4126898;28;20046;-59
2023/11/09 00:05:22;;;;;;;5.27;1.93;;;7.50;99.90;;;;;;4126303;28;20043;-60
2023/11/09 00:07:23;;;;;;;2.70;2.17;;;7.50;99.90;;;;;;4128732;28;20038;-60
2023/11/09 00:09:25;;;;;;;2.10;1.60;;;7.50;99.90;;;;;;4128809;28;20050;-59
2023/11/09 00:11:26;;;;;;;2.53;1.30;;;7.50;99.90;;;;;;4128312;28;20383;-59
2023/11/09 00:13:27;;;;;;;2.27;1.20;;;7.50;99.90;;;;;;4129245;28;20498;-60
2023/11/09 00:15:28;;;;;;;2.13;1.53;;;7.60;99.90;;;;;;4128132;28;20046;-60
2023/11/09 00:17:29;;;;;;;1.90;1.60;;;7.50;99.90;;;;;;4125337;28;20483;-60
2023/11/09 00:19:30;;;;;;;2.80;1.63;;;7.50;99.90;;;;;;4117701;28;20076;-60
2023/11/09 00:21:31;;;;;;;3.30;1.50;;;7.50;99.90;;;;;;4122485;28;20475;-58
2023/11/09 00:23:32;;;;;;;1.87;1.27;;;7.50;99.90;;;;;;4127656;28;20046;-61
2023/11/09 00:25:35;;;;;;;1.97;1.47;;;7.50;99.90;;;;;;4128708;28;20042;-62
2023/11/09 00:27:36;;;;;;;4.17;2.47;;;7.50;99.90;;;;;;4127731;28;20035;-61
2023/11/09 00:29:39;;;;;;;2.80;2.23;;;7.50;99.90;;;;;;4119451;28;20169;-59
2023/11/09 00:31:40;;;;;;;3.83;2.53;;;7.50;99.90;;;;;;4111906;28;20031;-58
2023/11/09 00:33:42;;;;;;;3.90;2.83;;;7.50;99.90;;;;;;4113504;28;20078;-60
2023/11/09 00:35:44;;;;;;;4.37;1.87;;;7.40;99.90;;;;;;4112126;28;20054;-60
2023/11/09 00:37:45;;;;;;;4.40;2.80;;;7.40;99.90;;;;;;4113393;28;20038;-60
2023/11/09 00:39:46;;;;;;;6.67;3.53;;;7.40;99.90;;;;;;4123036;28;20054;-59
2023/11/09 00:41:47;;;;;;;3.47;2.50;;;7.30;99.90;;;;;;4127538;28;20088;-58
2023/11/09 00:43:48;;;;;;;2.63;1.80;;;7.30;99.90;;;;;;4128712;28;20093;-61
2023/11/09 00:45:49;;;;;;;6.03;3.33;;;7.30;99.90;;;;;;4127656;28;20499;-62
2023/11/09 00:47:52;;;;;;;2.03;1.50;;;7.30;99.90;;;;;;4119977;28;20377;-62
2023/11/09 00:49:53;;;;;;;2.50;1.87;;;7.20;99.90;;;;;;4111453;28;20050;-60
2023/11/09 00:51:54;;;;;;;3.33;2.50;;;7.20;99.90;;;;;;4113737;28;20093;-61
2023/11/09 00:53:55;;;;;;;5.23;3.10;;;7.20;99.90;;;;;;4111880;28;20523;-62
2023/11/09 00:55:57;;;;;;;3.43;2.20;;;7.20;99.90;;;;;;4112308;28;20082;-61
2023/11/09 00:57:59;;;;;;;4.57;3.27;;;7.10;99.90;;;;;;4126514;28;20038;-60
2023/11/09 01:00:00;;;;;;;2.37;1.90;;;7.10;99.90;;;;;;4126943;28;20042;-60
2023/11/09 01:02:01;;;;;;;3.43;2.70;;;7.10;99.90;;;;;;4118182;28;20451;-61
2023/11/09 01:04:05;;;;;;;3.10;2.33;;;7.00;99.90;;;;;;4122768;28;20090;-61
2023/11/09 01:06:07;;;;;;;3.60;2.17;;;6.90;99.90;;;;;;4112402;28;20089;-60
2023/11/09 01:08:08;;;;;;;3.37;1.77;;;6.80;99.90;;;;;;4112321;28;20043;-61
2023/11/09 01:10:09;;;;;;;2.93;1.73;;;6.80;99.90;;;;;;4112379;28;20043;-61
2023/11/09 01:12:11;;;;;;;3.50;1.70;;;6.70;99.90;;;;;;4111894;28;20046;-61
2023/11/09 01:14:12;;;;;;;3.70;1.67;;;6.70;99.90;;;;;;4112268;28;20431;-61
2023/11/09 01:16:13;;;;;;;2.83;1.70;;;6.60;99.90;;;;;;4111581;28;21056;-60
2023/11/09 01:18:14;;;;;;;2.87;1.70;;;6.50;99.90;;;;;;4116394;28;20181;-61
2023/11/09 01:20:16;;;;;;;2.97;2.10;;;6.50;99.90;;;;;;4123687;28;20085;-60
2023/11/09 01:22:17;;;;;;;4.17;2.30;;;6.50;99.90;;;;;;4115622;28;20094;-61
2023/11/09 01:24:18;;;;;;;4.23;2.53;;;6.40;99.90;;;;;;4127052;28;20038;-61
2023/11/09 01:26:19;;;;;;;4.10;1.90;;;6.40;99.90;;;;;;4121897;28;20118;-61
2023/11/09 01:28:20;;;;;;;2.67;1.77;;;6.40;99.90;;;;;;4126977;28;20034;-61
2023/11/09 01:30:21;;;;;;;4.37;1.80;;;6.30;99.90;;;;;;4126824;28;20074;-59
2023/11/09 01:32:22;;;;;;;2.67;1.53;;;6.30;99.90;;;;;;4127055;28;20066;-61
2023/11/09 01:34:24;;;;;;;3.67;1.83;;;6.30;99.90;;;;;;4128015;28;20056;-62
2023/11/09 01:36:25;;;;;;;2.07;1.47;;;6.30;99.90;;;;;;4127232;28;20501;-61
2023/11/09 01:38:26;;;;;;;3.07;1.90;;;6.30;99.90;;;;;;4125986;28;20046;-62
2023/11/09 01:40:27;;;;;;;4.40;1.90;;;6.30;99.90;;;;;;4118551;28;20049;-61
2023/11/09 01:42:29;;;;;;;3.20;1.60;;;6.30;99.90;;;;;;4111657;28;20051;-61
2023/11/09 01:44:30;;;;;;;1.90;1.40;;;6.30;99.90;;;;;;4112076;28;20043;-62
2023/11/09 01:46:31;;;;;;;1.43;1.07;;;6.30;99.90;;;;;;4112627;28;20046;-61
2023/11/09 01:48:36;;;;;;;2.87;1.40;;;6.30;99.90;;;;;;4124707;28;20039;-62
2023/11/09 01:50:37;;;;;;;2.90;1.30;;;6.30;99.90;;;;;;4120173;28;20042;-61
2023/11/09 01:52:39;;;;;;;2.83;1.40;;;6.30;99.90;;;;;;4128162;28;20038;-58
2023/11/09 01:54:41;;;;;;;2.13;1.27;;;6.30;99.90;;;;;;4111558;28;20110;-60
2023/11/09 01:56:42;;;;;;;2.13;1.40;;;6.30;99.90;;;;;;4114670;28;20093;-61
2023/11/09 01:58:47;;;;;;;1.40;1.30;;;6.30;99.90;;;;;;4111427;28;20462;-61
2023/11/09 02:00:51;;;;;;;3.50;2.10;;;6.20;99.90;;;;;;4112555;28;20031;-59
2023/11/09 02:02:54;;;;;;;2.07;1.63;;;6.20;99.90;;;;;;4114092;28;20053;-61
2023/11/09 02:04:55;;;;;;;4.00;1.90;;;6.20;99.90;;;;;;4127229;28;20518;-61
2023/11/09 02:06:57;;;;;;;2.87;1.70;;;6.20;99.90;;;;;;4121452;28;20077;-61
2023/11/09 02:08:59;;;;;;;2.27;1.90;;;6.10;99.90;;;;;;4117166;28;20042;-61
2023/11/09 02:11:00;;;;;;;3.03;1.67;;;6.10;99.90;;;;;;4114500;28;20047;-61
2023/11/09 02:13:01;;;;;;;2.33;1.57;;;6.10;99.90;;;;;;4117519;28;20772;-60
2023/11/09 02:15:03;;;;;;;2.57;2.00;;;6.10;99.90;;;;;;4114682;28;20043;-61
2023/11/09 02:17:05;;;;;;;3.97;1.87;;;6.10;99.90;;;;;;4114005;28;20487;-61
2023/11/09 02:19:07;;;;;;;4.13;2.37;;;6.00;99.90;;;;;;4114698;28;20345;-60
2023/11/09 02:21:11;;;;;;;2.13;1.50;;;6.00;99.90;;;;;;4120091;28;20038;-59
2023/11/09 02:23:18;;;;;;;3.63;1.40;;;6.00;99.90;;;;;;4130821;28;20042;-60
2023/11/09 02:25:22;;;;;;;2.30;1.37;;;6.10;99.90;;;;;;4129484;28;20101;-59
2023/11/09 02:27:23;;;;;;;1.47;1.30;;;6.00;99.90;;;;;;4123602;28;20081;-60
2023/11/09 02:29:25;;;;;;;2.40;1.33;;;6.00;99.90;;;;;;4113604;28;20047;-60
2023/11/09 02:31:26;;;;;;;2.87;1.17;;;5.90;99.90;;;;;;4114993;28;20039;-62
2023/11/09 02:33:27;;;;;;;3.73;1.57;;;6.00;99.90;;;;;;4128968;28;20475;-61
2023/11/09 02:35:28;;;;;;;1.37;1.10;;;6.00;99.90;;;;;;4130958;28;20030;-59
2023/11/09 02:37:30;;;;;;;1.73;1.20;;;5.90;99.90;;;;;;4129612;28;20434;-60
2023/11/09 02:39:31;;;;;;;7.10;1.83;;;5.90;99.90;;;;;;4129028;28;20684;-61
2023/11/09 02:41:32;;;;;;;3.17;1.63;;;5.90;99.90;;;;;;4127784;28;20090;-61
2023/11/09 02:43:39;;;;;;;1.83;1.23;;;5.80;99.90;;;;;;4126358;28;20058;-58
2023/11/09 02:45:41;;;;;;;2.23;1.10;;;5.80;99.90;;;;;;4125645;28;20055;-61
2023/11/09 02:47:42;;;;;;;2.63;1.10;;;5.80;99.90;;;;;;4117329;28;20085;-59
2023/11/09 02:49:43;;;;;;;3.23;1.10;;;5.80;99.90;;;;;;4127097;28;20442;-60
2023/11/09 02:51:44;;;;;;;1.87;1.20;;;5.80;99.90;;;;;;4113500;28;20038;-60
2023/11/09 02:53:45;;;;;;;2.20;0.90;;;5.70;99.90;;;;;;4129800;28;20461;-61
2023/11/09 02:55:46;;;;;;;1.30;0.80;;;5.70;99.90;;;;;;4117081;28;20055;-60
2023/11/09 02:57:47;;;;;;;3.30;1.20;;;5.70;99.90;;;;;;4114398;28;20638;-61
2023/11/09 02:59:48;;;;;;;1.13;0.87;;;5.60;99.90;;;;;;4114378;28;20493;-62
2023/11/09 03:01:50;;;;;;;1.47;0.97;;;5.60;99.90;;;;;;4128109;28;20038;-61
2023/11/09 03:03:52;;;;;;;1.20;0.90;;;5.50;99.90;;;;;;4121083;28;20038;-60
2023/11/09 03:05:55;;;;;;;1.43;0.80;;;5.50;99.90;;;;;;4114096;28;20050;-61
2023/11/09 03:07:56;;;;;;;1.13;0.77;;;5.40;99.90;;;;;;4113161;28;20105;-60
2023/11/09 03:09:57;;;;;;;0.77;0.70;;;5.40;99.90;;;;;;4128209;28;20124;-61
2023/11/09 03:11:59;;;;;;;1.53;0.60;;;5.40;99.90;;;;;;4128598;28;20042;-61
2023/11/09 03:14:00;;;;;;;1.40;0.80;;;5.40;99.90;;;;;;4128220;28;20042;-61
2023/11/09 03:16:01;;;;;;;2.03;0.73;;;5.40;99.90;;;;;;4127383;28;20069;-62
2023/11/09 03:18:02;;;;;;;1.07;0.70;;;5.40;99.90;;;;;;4127049;28;20466;-61
2023/11/09 03:20:04;;;;;;;1.70;1.00;;;5.40;99.90;;;;;;4126056;28;20043;-61
2023/11/09 03:22:11;;;;;;;1.30;0.60;;;5.40;99.90;;;;;;4125654;28;20042;-61
2023/11/09 03:24:13;;;;;;;0.80;0.60;;;5.40;99.90;;;;;;4113610;28;20541;-59
2023/11/09 03:26:14;;;;;;;2.23;0.80;;;5.40;99.90;;;;;;4113172;28;20601;-61
2023/11/09 03:28:15;;;;;;;1.93;0.60;;;5.30;99.90;;;;;;4113559;28;20027;-61
2023/11/09 03:30:16;;;;;;;0.70;0.70;;;5.30;99.90;;;;;;4112731;28;20085;-61
2023/11/09 03:32:17;;;;;;;4.30;1.33;;;5.20;99.90;;;;;;4114566;28;20081;-61
2023/11/09 03:34:18;;;;;;;4.03;0.87;;;5.20;99.90;;;;;;4112352;28;20035;-61
2023/11/09 03:36:20;;;;;;;3.13;1.10;;;5.20;99.90;;;;;;4123007;28;20077;-61
2023/11/09 03:38:21;;;;;;;2.73;0.80;;;5.10;99.90;;;;;;4128397;28;20073;-60
2023/11/09 03:40:22;;;;;;;3.73;1.07;;;5.10;99.90;;;;;;4118537;28;20441;-61
2023/11/09 03:42:24;;;;;;;1.90;1.07;;;5.00;99.90;;;;;;4112476;28;20746;-61
2023/11/09 03:44:26;;;;;;;4.80;0.83;;;5.00;99.90;;;;;;4115033;28;20023;-60
2023/11/09 03:46:27;;;;;;;1.77;1.07;;;5.00;99.90;;;;;;4128405;28;20186;-60
2023/11/09 03:48:28;;;;;;;3.93;0.80;;;4.90;99.90;;;;;;4128919;28;20577;-61
2023/11/09 03:50:30;;;;;;;2.50;1.10;;;4.90;99.90;;;;;;4128834;28;20031;-60
2023/11/09 03:52:31;;;;;;;3.67;1.60;;;4.90;99.90;;;;;;4116759;28;20030;-56
2023/11/09 03:54:32;;;;;;;7.63;3.00;;;4.90;99.90;;;;;;4112525;28;20097;-61
2023/11/09 03:56:35;;;;;;;20.97;8.50;;;4.90;99.90;;;;;;4112581;28;20031;-60
2023/11/09 03:58:36;;;;;;;16.10;6.43;;;4.80;99.90;;;;;;4114194;28;20081;-60
2023/11/09 04:00:38;;;;;;;14.43;7.60;;;4.80;99.90;;;;;;4112322;28;20071;-60
2023/11/09 04:02:42;;;;;;;13.93;7.33;;;4.70;99.90;;;;;;4113599;28;20030;-60
2023/11/09 04:04:44;;;;;;;19.10;8.60;;;4.70;99.90;;;;;;4126280;28;20458;-61
2023/11/09 04:06:48;;;;;;;40.27;15.73;;;4.70;99.90;;;;;;4129337;28;20050;-59
2023/11/09 04:08:49;;;;;;;42.90;16.63;;;4.60;99.90;;;;;;4128216;28;20089;-60
2023/11/09 04:10:51;;;;;;;23.13;10.13;;;4.60;99.90;;;;;;4129697;28;20080;-60
2023/11/09 04:12:52;;;;;;;6.53;3.20;;;4.60;99.90;;;;;;4126833;28;20463;-60
2023/11/09 04:14:54;;;;;;;4.00;1.73;;;4.60;99.90;;;;;;4118431;28;20047;-61
2023/11/09 04:16:55;;;;;;;2.17;1.13;;;4.50;99.90;;;;;;4112128;28;20112;-61
2023/11/09 04:18:56;;;;;;;3.50;1.43;;;4.50;99.90;;;;;;4114060;28;21180;-60
2023/11/09 04:20:57;;;;;;;2.10;1.00;;;4.50;99.90;;;;;;4122650;28;20023;-59
2023/11/09 04:23:00;;;;;;;2.87;1.50;;;4.40;99.90;;;;;;4112289;28;20053;-60
2023/11/09 04:25:02;;;;;;;6.30;2.63;;;4.40;99.90;;;;;;4111439;28;20265;-59
2023/11/09 04:27:03;;;;;;;3.70;1.87;;;4.40;99.90;;;;;;4112328;28;20297;-61
2023/11/09 04:29:08;;;;;;;3.00;2.00;;;4.30;99.90;;;;;;4113253;28;20026;-62
2023/11/09 04:31:10;;;;;;;3.93;1.63;;;4.30;99.90;;;;;;4111695;28;20031;-60
2023/11/09 04:33:11;;;;;;;2.83;1.57;;;4.30;99.90;;;;;;4115595;28;20038;-61
2023/11/09 04:35:14;;;;;;;5.93;1.53;;;4.30;99.90;;;;;;4127268;28;20353;-59
2023/11/09 04:37:20;;;;;;;1.40;1.30;;;4.30;99.90;;;;;;4128896;28;20272;-59
2023/11/09 04:39:32;;;;;;;4.10;2.27;;;4.20;99.90;;;;;;4125891;28;20824;-59
2023/11/09 04:41:34;;;;;;;2.80;1.43;;;4.20;99.90;;;;;;4113961;28;20272;-61
2023/11/09 04:43:35;;;;;;;3.50;1.37;;;4.20;99.90;;;;;;4114699;28;20428;-60
2023/11/09 04:45:38;;;;;;;2.43;1.07;;;4.20;99.90;;;;;;4127070;28;20080;-59
2023/11/09 04:47:45;;;;;;;6.00;2.03;;;4.10;99.90;;;;;;4127249;28;20807;-61
2023/11/09 04:49:46;;;;;;;3.03;1.60;;;4.10;99.90;;;;;;4118306;28;20051;-59
2023/11/09 04:51:50;;;;;;;11.90;5.43;;;4.10;99.90;;;;;;4117644;28;20327;-60
2023/11/09 04:53:51;;;;;;;10.60;5.77;;;4.10;99.90;;;;;;4128542;28;20034;-60
2023/11/09 04:56:03;;;;;;;7.63;3.83;;;4.10;99.90;;;;;;4126659;28;20065;-60
2023/11/09 05:07:27;;;;;;;3.57;1.83;;;4.00;99.90;;;;;;4112374;28;20051;-61
2023/11/09 05:09:29;;;;;;;5.57;1.90;;;4.00;99.90;;;;;;4111059;28;20273;-60
2023/11/09 05:11:30;;;;;;;3.27;2.10;;;4.00;99.90;;;;;;4112589;28;20035;-62
2023/11/09 05:13:31;;;;;;;2.10;1.83;;;3.90;99.90;;;;;;4110799;28;20288;-60
2023/11/09 05:15:32;;;;;;;3.87;1.50;;;3.90;99.90;;;;;;4116379;28;20350;-60
2023/11/09 05:17:33;;;;;;;2.37;1.40;;;3.90;99.90;;;;;;4112142;28;20350;-61
2023/11/09 05:19:36;;;;;;;3.17;1.80;;;3.90;99.90;;;;;;4112051;28;20284;-60
2023/11/09 05:21:37;;;;;;;1.50;1.33;;;3.80;99.90;;;;;;4111128;28;20081;-59
2023/11/09 05:23:38;;;;;;;3.17;1.83;;;3.80;99.90;;;;;;4119048;28;20291;-60
2023/11/09 05:25:41;;;;;;;6.17;1.70;;;3.80;99.90;;;;;;4095521;28;20856;-60
2023/11/09 05:27:42;;;;;;;3.37;1.83;;;3.80;99.90;;;;;;4095998;28;20543;-60
2023/11/09 05:29:46;;;;;;;2.33;1.47;;;3.80;99.90;;;;;;4095626;28;20364;-58
2023/11/09 05:31:48;;;;;;;5.93;1.50;;;3.80;99.90;;;;;;4095021;28;20086;-59
2023/11/09 05:33:52;;;;;;;4.07;2.73;;;4.00;99.90;;;;;;4116396;28;20252;-60
2023/11/09 05:35:54;;;;;;;5.23;1.30;;;4.20;99.90;;;;;;4112093;28;21072;-58
2023/11/09 05:37:56;;;;;;;3.60;1.57;;;4.40;99.90;;;;;;4115396;28;20039;-59
2023/11/09 05:39:57;;;;;;;2.47;1.47;;;4.70;99.90;;;;;;4114334;28;20672;-61
2023/11/09 05:41:59;;;;;;;2.03;1.17;;;5.00;99.90;;;;;;4115930;28;20038;-61
2023/11/09 05:44:00;;;;;;;8.93;1.33;;;5.30;99.90;;;;;;4114169;28;20039;-60
2023/11/09 05:46:02;;;;;;;2.03;1.50;;;5.70;99.90;;;;;;4119880;28;20442;-59
2023/11/09 05:48:03;;;;;;;3.23;1.40;;;6.00;99.90;;;;;;4113372;28;20062;-61
2023/11/09 05:50:05;;;;;;;2.50;1.60;;;6.40;99.90;;;;;;4119025;28;20030;-61
2023/11/09 05:52:06;;;;;;;1.87;1.17;;;6.70;99.90;;;;;;4122315;28;20089;-60
2023/11/09 05:54:08;;;;;;;6.97;2.40;;;7.10;99.90;;;;;;4125733;28;20046;-60
2023/11/09 05:56:09;;;;;;;10.13;5.10;;;7.40;99.90;;;;;;4126372;28;20022;-59
2023/11/09 05:58:11;;;;;;;4.63;2.30;;;7.50;99.90;;;;;;4129656;28;20046;-59
2023/11/09 06:00:14;;;;;;;2.13;1.67;;;7.80;99.90;;;;;;4124524;28;20022;-58
2023/11/09 06:02:15;;;;;;;4.30;2.30;;;8.20;99.90;;;;;;4128062;28;20050;-60
2023/11/09 06:04:16;;;;;;;3.57;2.13;;;8.60;99.90;;;;;;4129350;28;20561;-59
2023/11/09 06:06:17;;;;;;;7.97;3.30;;;9.00;99.90;;;;;;4122112;28;20061;-62
2023/11/09 06:08:19;;;;;;;5.77;3.27;;;9.20;99.90;;;;;;4113274;28;20404;-61
2023/11/09 06:10:20;;;;;;;8.33;3.90;;;9.40;99.90;;;;;;4113634;28;20090;-58
2023/11/09 06:12:22;;;;;;;12.87;4.90;;;9.90;99.90;;;;;;4113895;28;20082;-59
2023/11/09 06:14:23;;;;;;;6.73;3.67;;;10.00;99.90;;;;;;4112193;28;20035;-60
2023/11/09 06:16:24;;;;;;;6.33;3.40;;;10.20;99.90;;;;;;4114458;28;20152;-60
2023/11/09 06:18:26;;;;;;;6.03;2.50;;;10.50;99.90;;;;;;4113251;28;20468;-60
2023/11/09 06:20:27;;;;;;;4.13;2.23;;;10.70;99.90;;;;;;4114601;28;20081;-61
2023/11/09 06:22:28;;;;;;;9.23;2.10;;;10.70;99.90;;;;;;4113380;28;20094;-60
2023/11/09 06:24:29;;;;;;;3.83;2.43;;;10.10;99.90;;;;;;4114327;28;20537;-60
2023/11/09 06:26:30;;;;;;;5.23;1.87;;;9.90;99.90;;;;;;4113316;28;20574;-61
2023/11/09 06:28:31;;;;;;;6.00;1.97;;;9.90;99.90;;;;;;4114109;28;20089;-60
2023/11/09 06:30:33;;;;;;;3.63;1.53;;;9.80;99.90;;;;;;4113845;28;20034;-61
2023/11/09 06:32:35;;;;;;;5.20;1.87;;;9.80;99.90;;;;;;4113848;28;20038;-59
2023/11/09 06:34:36;;;;;;;4.50;1.40;;;9.70;99.90;;;;;;4113722;28;20027;-59
2023/11/09 06:36:37;;;;;;;7.83;2.50;;;9.90;99.90;;;;;;4117289;28;20117;-60
2023/11/09 06:38:38;;;;;;;4.27;1.70;;;10.20;99.90;;;;;;4109735;28;20073;-59
2023/11/09 06:40:40;;;;;;;2.17;1.33;;;10.50;99.90;;;;;;4108602;28;20560;-59
2023/11/09 06:42:42;;;;;;;4.77;1.47;;;10.70;99.90;;;;;;4109479;28;20046;-60
2023/11/09 06:44:44;;;;;;;4.43;1.83;;;11.00;99.90;;;;;;4106825;28;20047;-59
2023/11/09 06:46:46;;;;;;;2.10;1.70;;;10.60;99.90;;;;;;4110379;28;20439;-60
2023/11/09 06:48:48;;;;;;;3.17;2.00;;;10.30;99.90;;;;;;4114626;28;20026;-60
2023/11/09 06:50:49;;;;;;;2.63;1.67;;;10.30;99.90;;;;;;4125026;28;20038;-59
2023/11/09 06:52:55;;;;;;;4.87;2.20;;;10.70;99.90;;;;;;4129518;28;20034;-60
2023/11/09 06:54:56;;;;;;;1.53;1.40;;;10.90;99.90;;;;;;4116977;28;20078;-60
2023/11/09 06:56:58;;;;;;;2.93;1.50;;;11.20;99.90;;;;;;4113224;28;20040;-60
2023/11/09 06:59:00;;;;;;;2.80;1.63;;;11.60;99.90;;;;;;4114517;28;20475;-61
2023/11/09 07:01:04;;;;;;;2.50;1.80;;;12.00;99.90;;;;;;4128914;28;20050;-60
2023/11/09 07:03:05;;;;;;;3.53;1.73;;;12.40;99.90;;;;;;4124052;28;20031;-60
2023/11/09 07:05:07;;;;;;;6.20;2.20;;;12.20;99.90;;;;;;4113288;28;20062;-61
2023/11/09 07:07:09;;;;;;;2.30;1.40;;;12.10;99.90;;;;;;4113414;28;20051;-60
2023/11/09 07:09:11;;;;;;;3.37;1.53;;;12.20;99.90;;;;;;4112963;28;20125;-59
2023/11/09 07:11:12;;;;;;;2.73;1.70;;;12.20;99.90;;;;;;4118477;28;20043;-61
2023/11/09 07:13:14;;;;;;;2.73;1.60;;;12.50;99.90;;;;;;4130105;28;20100;-61
2023/11/09 07:15:16;;;;;;;3.30;1.87;;;12.70;99.90;;;;;;4127739;28;20128;-59
2023/11/09 07:17:19;;;;;;;2.37;1.87;;;13.10;99.90;;;;;;4122793;28;20050;-60
2023/11/09 07:19:24;;;;;;;3.10;2.37;;;13.50;99.90;;;;;;4128698;28;20050;-59
2023/11/09 07:21:25;;;;;;;4.80;2.37;;;13.50;99.90;;;;;;4130011;28;20030;-60
2023/11/09 07:23:28;;;;;;;5.47;1.90;;;13.50;99.90;;;;;;4121125;28;20035;-60
2023/11/09 07:25:31;;;;;;;3.97;2.33;;;13.60;99.70;;;;;;4113859;28;20539;-60
2023/11/09 07:27:32;;;;;;;4.53;1.90;;;13.80;99.40;;;;;;4112868;28;20059;-61
2023/11/09 07:29:34;;;;;;;5.00;1.90;;;13.80;98.90;;;;;;4113804;28;20471;-58
2023/11/09 07:31:35;;;;;;;4.18;1.80;;;14.10;98.90;;;;;;4113331;28;20479;-59
2023/11/09 07:33:36;;;;;;;2.50;1.65;;;14.40;98.50;;;;;;4114799;28;20031;-60
2023/11/09 07:35:37;;;;;;;3.67;1.80;;;14.70;97.90;;;;;;4113161;28;20085;-59
2023/11/09 07:37:38;;;;;;;2.60;2.03;;;14.90;97.50;;;;;;4115675;28;20101;-60
2023/11/09 07:39:40;;;;;;;3.85;1.40;;;15.00;97.20;;;;;;4129133;28;20590;-59
2023/11/09 07:41:42;;;;;;;2.65;1.77;;;14.80;96.60;;;;;;4129222;28;20042;-60
2023/11/09 07:43:43;;;;;;;4.43;1.65;;;14.20;96.80;;;;;;4124222;28;20027;-63
2023/11/09 07:45:45;;;;;;;6.57;2.50;;;14.00;97.30;;;;;;4106391;28;20031;-59
2023/11/09 07:47:47;;;;;;;8.50;2.03;;;13.80;97.20;;;;;;4104830;28;20063;-59
2023/11/09 07:49:50;;;;;;;6.82;2.17;;;13.90;97.40;;;;;;4125282;28;20470;-58
2023/11/09 07:51:54;;;;;;;3.92;1.83;;;13.90;97.20;;;;;;4120170;28;20125;-63
2023/11/09 07:53:55;;;;;;;3.42;1.80;;;13.80;97.10;;;;;;4115369;28;20034;-61
2023/11/09 07:55:56;;;;;;;4.38;2.10;;;13.90;97.00;;;;;;4123472;28;20030;-60
2023/11/09 07:58:02;;;;;;;3.58;1.88;;;13.70;97.20;;;;;;4125981;28;20461;-60
2023/11/09 08:00:05;;;;;;;2.70;1.70;;;13.80;97.00;;;;;;4112691;28;20054;-61
2023/11/09 08:02:07;;;;;;;2.13;1.77;;;13.80;97.10;;;;;;4111241;28;20487;-61
2023/11/09 08:04:08;;;;;;;4.13;1.73;;;13.60;97.00;;;;;;4117047;28;20530;-62
2023/11/09 08:06:09;;;;;;;3.40;1.67;;;13.80;97.00;;;;;;4127639;28;20398;-61
2023/11/09 08:08:11;;;;;;;3.58;1.48;;;13.80;96.80;;;;;;4128123;28;20058;-60
2023/11/09 08:10:12;;;;;;;2.20;1.13;;;13.60;96.70;;;;;;4122878;28;20093;-61
2023/11/09 08:12:13;;;;;;;2.35;1.33;;;13.40;96.70;;;;;;4128714;28;20046;-61
2023/11/09 08:14:14;;;;;;;2.00;1.17;;;13.20;97.00;;;;;;4126619;28;20084;-62
2023/11/09 08:16:16;;;;;;;2.13;1.23;;;13.30;97.00;;;;;;4116845;28;20054;-64
2023/11/09 08:18:17;;;;;;;4.30;1.30;;;13.80;97.10;;;;;;4113152;28;20038;-59
2023/11/09 08:20:18;;;;;;;3.95;1.80;;;14.20;96.60;;;;;;4127706;28;20100;-57
2023/11/09 08:22:19;;;;;;;3.63;1.88;;;14.50;96.10;;;;;;4128657;28;20388;-62
2023/11/09 08:24:20;;;;;;;3.47;1.60;;;14.50;95.90;;;;;;4127635;28;20046;-61
2023/11/09 08:26:21;;;;;;;2.95;1.40;;;14.40;96.00;;;;;;4128526;28;20046;-61
2023/11/09 08:28:24;;;;;;;2.45;1.38;;;14.20;95.90;;;;;;4127653;28;20161;-60
2023/11/09 08:30:27;;;;;;;3.90;1.17;;;14.10;95.80;;;;;;4128693;28;20060;-60
2023/11/09 08:32:29;;;;;;;2.83;1.10;;;13.90;95.90;;;;;;4117902;28;20110;-61
2023/11/09 08:34:31;;;;;;;5.38;1.10;;;13.80;96.10;;;;;;4112536;28;20081;-61
2023/11/09 08:36:32;;;;;;;2.40;1.10;;;13.70;96.30;;;;;;4111371;28;20039;-61
2023/11/09 08:38:33;;;;;;;3.70;1.15;;;13.80;96.10;;;;;;4112970;28;20026;-66
2023/11/09 08:40:36;;;;;;;4.47;1.48;;;13.80;96.00;;;;;;4113561;28;20058;-60
2023/11/09 08:42:37;;;;;;;1.90;1.20;;;14.00;95.90;;;;;;4112468;28;20490;-61
2023/11/09 08:44:38;;;;;;;3.65;1.92;;;13.70;95.90;;;;;;4112051;28;20070;-61
2023/11/09 08:46:40;;;;;;;3.63;2.08;;;13.50;95.90;;;;;;4112878;28;20039;-61
2023/11/09 08:48:41;;;;;;;8.43;2.80;;;13.40;96.20;;;;;;4111824;28;20117;-60
2023/11/09 08:50:44;;;;;;;4.50;2.40;;;13.00;96.10;;;;;;4114476;28;20532;-61
2023/11/09 08:52:45;;;;;;;5.37;1.90;;;12.60;96.30;;;;;;4112353;28;20081;-60
2023/11/09 08:54:46;;;;;;;4.40;1.80;;;12.30;96.80;;;;;;4111301;28;20043;-61
2023/11/09 08:56:47;;;;;;;3.97;1.50;;;12.20;96.90;;;;;;4113432;28;20563;-58
2023/11/09 08:58:50;;;;;;;5.97;1.77;;;11.90;97.10;;;;;;4111106;28;20023;-59
2023/11/09 09:00:52;;;;;;;2.27;1.50;;;11.70;97.40;;;;;;4119683;28;20046;-59
2023/11/09 09:02:54;;;;;;;6.33;2.03;;;11.70;97.50;;;;;;4114215;28;20109;-60
2023/11/09 09:04:55;;;;;;;5.93;1.90;;;11.70;97.50;;;;;;4113164;28;20034;-58
2023/11/09 09:06:57;;;;;;;5.27;1.70;;;11.70;97.70;;;;;;4110769;28;20038;-62
2023/11/09 09:08:59;;;;;;;4.03;2.33;;;11.60;97.60;;;;;;4112175;28;20046;-61
2023/11/09 09:11:01;;;;;;;6.87;2.60;;;11.60;97.70;;;;;;4113817;28;20030;-60
2023/11/09 09:13:02;;;;;;;7.20;2.30;;;11.70;97.90;;;;;;4112491;28;20451;-62
2023/11/09 09:15:12;;;;;;;5.83;2.33;;;11.90;97.80;;;;;;4111551;28;20022;-60
2023/11/09 09:17:16;;;;;;;3.92;2.13;;;11.90;97.80;;;;;;4110199;28;20030;-58
2023/11/09 09:19:20;;;;;;;5.47;2.37;;;12.00;97.90;;;;;;4111317;28;20495;-61
2023/11/09 09:21:23;;;;;;;7.53;2.23;;;11.90;97.90;;;;;;4111324;28;20189;-61
2023/11/09 09:23:25;;;;;;;3.90;1.47;;;12.10;97.90;;;;;;4113078;28;20054;-60
2023/11/09 09:25:26;;;;;;;2.27;1.10;;;12.20;97.70;;;;;;4117841;28;20030;-62
2023/11/09 09:27:28;;;;;;;5.17;1.10;;;12.40;97.60;;;;;;4122448;28;20042;-61
2023/11/09 09:29:30;;;;;;;4.03;1.13;;;12.60;97.40;;;;;;4125052;28;20023;-59
2023/11/09 09:31:31;;;;;;;2.30;1.10;;;12.70;97.10;;;;;;4122151;28;20097;-60
2023/11/09 09:33:33;;;;;;;2.67;1.13;;;12.80;96.80;;;;;;4113678;28;21460;-62
2023/11/09 09:35:35;;;;;;;4.20;1.20;;;12.90;96.70;;;;;;4111907;28;20081;-56
2023/11/09 09:37:40;;;;;;;3.07;2.00;;;12.80;96.70;;;;;;4111670;28;20499;-61
2023/11/09 09:39:42;;;;;;;5.73;1.70;;;12.60;96.50;;;;;;4113740;28;20031;-60
2023/11/09 09:41:52;;;;;;;4.70;1.10;;;12.40;96.60;;;;;;4110897;28;20042;-61
2023/11/09 09:43:57;;;;;;;2.58;1.10;;;12.30;96.70;;;;;;4118191;28;20055;-60
2023/11/09 09:45:59;;;;;;;4.17;1.90;;;12.20;96.70;;;;;;4110262;28;20027;-59
2023/11/09 09:48:01;;;;;;;2.93;1.03;;;12.20;96.80;;;;;;4111214;28;20101;-60
2023/11/09 09:50:04;;;;;;;3.30;1.13;;;12.10;96.70;;;;;;4114138;28;20112;-60
2023/11/09 09:52:07;;;;;;;3.00;0.60;;;12.10;96.60;;;;;;4111961;28;20443;-58
2023/11/09 09:54:08;;;;;;;2.13;1.00;;;12.10;96.40;;;;;;4111107;28;20039;-61
2023/11/09 09:56:11;;;;;;;2.40;0.70;;;12.20;96.60;;;;;;4111316;28;20478;-60
2023/11/09 09:58:12;;;;;;;3.53;0.77;;;12.20;96.50;;;;;;4111238;28;20043;-60
2023/11/09 10:00:25;;;;;;;2.37;0.70;;;12.40;96.50;;;;;;4110809;28;20097;-61
2023/11/09 10:02:31;;;;;;;1.43;0.67;;;12.60;96.40;;;;;;4110262;28;20706;-61
2023/11/09 10:04:33;;;;;;;1.07;0.60;;;12.80;96.40;;;;;;4110469;28;20035;-62
2023/11/09 10:06:34;;;;;;;3.43;0.70;;;12.90;96.40;;;;;;4111103;28;20551;-61
2023/11/09 10:08:36;;;;;;;2.23;0.70;;;13.00;96.30;;;;;;4110153;28;20109;-61
2023/11/09 10:10:40;;;;;;;3.43;1.10;;;13.10;96.10;;;;;;4111069;28;20376;-63
2023/11/09 10:12:41;;;;;;;3.03;0.83;;;13.00;96.00;;;;;;4110673;28;20031;-61
2023/11/09 10:14:42;;;;;;;1.00;0.70;;;12.80;95.80;;;;;;4111483;28;20133;-60
2023/11/09 10:16:48;;;;;;;2.00;0.50;;;12.80;96.00;;;;;;4110159;28;20806;-60
2023/11/09 10:18:51;;;;;;;1.10;0.60;;;12.90;95.70;;;;;;4111868;28;20436;-60
2023/11/09 10:20:57;;;;;;;3.50;0.80;;;12.90;95.60;;;;;;4110484;28;20637;-57
2023/11/09 10:23:02;;;;;;;1.30;0.60;;;12.90;95.50;;;;;;4117698;28;20042;-61
2023/11/09 10:25:04;;;;;;;0.70;0.33;;;12.90;95.30;;;;;;4097589;29;20090;-62
2023/11/09 10:27:08;;;;;;;1.80;0.50;;;13.00;95.30;;;;;;4116822;28;20499;-60
2023/11/09 10:29:13;;;;;;;2.50;0.40;;;13.00;95.10;;;;;;4111522;28;20039;-57
2023/11/09 10:31:31;;;;;;;3.17;1.30;;;13.10;95.00;;;;;;4113872;28;20050;-59
2023/11/09 10:33:34;;;;;;;2.30;0.50;;;13.20;94.70;;;;;;4113238;28;20076;-59
2023/11/09 10:35:37;;;;;;;0.70;0.37;;;13.30;95.00;;;;;;4114644;28;20105;-60
2023/11/09 10:37:40;;;;;;;1.17;0.43;;;13.30;95.00;;;;;;4113046;28;20033;-55
2023/11/09 10:39:46;;;;;;;0.40;0.20;;;13.30;94.50;;;;;;4115068;28;20439;-61
2023/11/09 10:41:49;;;;;;;4.53;0.80;;;13.30;94.10;;;;;;4113231;28;20376;-60
2023/11/09 10:43:50;;;;;;;1.93;1.13;;;13.30;94.30;;;;;;4113287;28;20096;-61
2023/11/09 10:45:52;;;;;;;1.73;0.53;;;13.20;94.20;;;;;;4123620;28;20047;-61
2023/11/09 10:47:55;;;;;;;2.63;0.60;;;13.10;94.50;;;;;;4113247;28;20419;-59
2023/11/09 10:49:58;;;;;;;1.67;1.00;;;13.00;94.50;;;;;;4106753;28;20035;-60